Time;durP1;ratioP1;P1;durP2;ratioP2;P2;SDS_P1;SDS_P2;PMS_P1;PMS_P2;Temp;Humidity;BMP_temperature;BMP_pressure;BME280_temperature;BME280_humidity;BME280_pressure;Samples;Min_cycle;Max_cycle;Signal;HPM_P1;HPM_P2
2022/06/10 00:00:50;;;;;;;34.53;5.13;;;15.60;99.90;;;;;;5085741;28;20314;-69
2022/06/10 00:03:18;;;;;;;25.90;4.95;;;15.60;99.90;;;;;;5086188;28;20013;-69
2022/06/10 00:05:47;;;;;;;31.05;5.65;;;15.50;99.90;;;;;;5086118;28;20029;-69
2022/06/10 00:08:18;;;;;;;30.48;5.03;;;15.50;99.90;;;;;;5086254;28;20066;-69
2022/06/10 00:10:45;;;;;;;35.50;5.60;;;15.40;99.90;;;;;;5084646;28;20028;-69
2022/06/10 00:13:13;;;;;;;30.38;5.25;;;15.30;99.90;;;;;;5085481;28;20020;-69
2022/06/10 00:15:39;;;;;;;32.42;5.28;;;15.30;99.90;;;;;;5082646;28;20039;-68
2022/06/10 00:18:06;;;;;;;32.85;5.95;;;15.20;99.90;;;;;;5084789;28;20091;-68
2022/06/10 00:20:32;;;;;;;33.58;4.95;;;15.20;99.90;;;;;;5067561;28;20029;-68
2022/06/10 00:22:58;;;;;;;24.85;4.82;;;15.20;99.90;;;;;;5085792;28;20067;-69
2022/06/10 00:25:25;;;;;;;31.30;5.32;;;15.20;99.90;;;;;;5084489;28;20020;-68
2022/06/10 00:27:51;;;;;;;29.38;5.25;;;15.20;99.90;;;;;;5084794;28;20315;-68
2022/06/10 00:30:21;;;;;;;29.10;5.25;;;15.30;99.90;;;;;;5084083;28;20051;-68
2022/06/10 00:32:47;;;;;;;34.90;5.47;;;15.20;99.90;;;;;;5085260;28;20029;-68
2022/06/10 00:35:13;;;;;;;36.60;5.40;;;15.20;99.90;;;;;;5085314;28;20035;-69
2022/06/10 00:37:39;;;;;;;43.78;5.78;;;15.10;99.90;;;;;;5083641;28;20028;-69
2022/06/10 00:40:07;;;;;;;30.92;5.80;;;15.20;99.90;;;;;;5085216;28;20032;-69
2022/06/10 00:42:35;;;;;;;32.03;5.45;;;15.10;99.90;;;;;;5083786;28;20031;-69
2022/06/10 00:45:01;;;;;;;32.70;5.15;;;15.20;99.90;;;;;;5084326;28;20062;-68
2022/06/10 00:47:36;;;;;;;34.20;4.88;;;15.20;99.90;;;;;;5097402;28;20311;-69
2022/06/10 00:50:28;;;;;;;38.05;5.30;;;15.30;99.90;;;;;;5103878;28;20035;-68
2022/06/10 00:53:00;;;;;;;34.40;6.03;;;15.40;99.90;;;;;;5104570;28;20046;-67
2022/06/10 00:55:29;;;;;;;31.05;5.93;;;15.50;99.90;;;;;;5086646;28;20052;-67
2022/06/10 00:58:01;;;;;;;35.67;5.40;;;15.50;99.90;;;;;;5102785;28;20315;-67
2022/06/10 01:00:28;;;;;;;30.98;4.90;;;15.50;99.90;;;;;;5086189;28;20034;-67
2022/06/10 01:02:55;;;;;;;29.95;4.95;;;15.60;99.90;;;;;;5105083;28;20091;-67
2022/06/10 01:05:24;;;;;;;34.08;4.90;;;15.60;99.90;;;;;;5105680;28;20028;-67
2022/06/10 01:08:00;;;;;;;34.50;5.82;;;15.60;99.90;;;;;;5104492;28;20028;-67
2022/06/10 01:10:28;;;;;;;30.80;5.57;;;15.60;99.90;;;;;;5104550;28;20032;-68
2022/06/10 01:13:23;;;;;;;33.50;5.90;;;15.60;99.90;;;;;;5087086;28;20016;-67
2022/06/10 01:16:28;;;;;;;30.35;4.55;;;15.70;99.90;;;;;;5085947;28;20069;-68
2022/06/10 01:19:24;;;;;;;33.92;5.32;;;15.70;99.90;;;;;;5104340;28;20211;-67
2022/06/10 01:22:29;;;;;;;32.97;4.90;;;15.60;99.90;;;;;;5104257;28;20023;-67
2022/06/10 01:25:23;;;;;;;30.80;5.38;;;15.60;99.90;;;;;;5104229;28;20065;-68
2022/06/10 01:28:08;;;;;;;39.03;5.95;;;15.60;99.90;;;;;;5104346;28;20012;-68
2022/06/10 01:31:01;;;;;;;30.95;5.28;;;15.50;99.90;;;;;;5104903;28;20019;-67
2022/06/10 01:33:50;;;;;;;35.65;5.80;;;15.50;99.90;;;;;;5104013;28;20024;-68
2022/06/10 01:36:39;;;;;;;30.95;5.22;;;15.50;99.90;;;;;;5103449;28;20027;-68
2022/06/10 01:39:44;;;;;;;41.15;5.78;;;15.50;99.90;;;;;;5103718;28;20038;-67
2022/06/10 01:42:33;;;;;;;34.33;5.32;;;15.50;99.90;;;;;;5091914;28;20046;-67
2022/06/10 01:45:22;;;;;;;32.53;5.07;;;15.50;99.90;;;;;;5089770;28;20438;-67
2022/06/10 01:48:16;;;;;;;39.10;5.75;;;15.50;99.90;;;;;;5089311;28;20338;-67
2022/06/10 01:50:49;;;;;;;33.20;5.38;;;15.50;99.90;;;;;;5090126;28;20031;-67
2022/06/10 01:53:43;;;;;;;40.13;5.70;;;15.40;99.90;;;;;;5067336;28;20028;-67
2022/06/10 01:56:17;;;;;;;41.08;6.15;;;15.30;99.90;;;;;;5083203;28;20059;-68
2022/06/10 01:58:49;;;;;;;31.00;5.10;;;15.30;99.90;;;;;;5083042;28;20054;-68
2022/06/10 02:01:16;;;;;;;;;;;15.30;99.90;;;;;;5084724;28;20039;-68
2022/06/10 02:03:50;;;;;;;38.20;5.97;;;15.30;99.90;;;;;;5083062;28;19901;-67
2022/06/10 02:06:22;;;;;;;40.83;5.38;;;15.20;99.90;;;;;;5083357;28;20070;-68
2022/06/10 02:09:01;;;;;;;34.13;5.32;;;15.10;99.90;;;;;;5084007;28;20180;-68
2022/06/10 02:11:30;;;;;;;41.33;5.22;;;15.10;99.90;;;;;;5067101;28;20338;-68
2022/06/10 02:14:02;;;;;;;34.88;5.63;;;15.10;99.90;;;;;;5082581;28;20023;-68
2022/06/10 02:16:31;;;;;;;27.30;5.05;;;15.00;99.90;;;;;;5083030;28;20091;-69
2022/06/10 02:19:23;;;;;;;34.35;5.53;;;14.90;99.90;;;;;;5083126;28;20021;-68
2022/06/10 02:21:53;;;;;;;38.88;5.38;;;14.90;99.90;;;;;;5070435;28;20291;-68
2022/06/10 02:24:50;;;;;;;37.63;5.53;;;14.90;99.90;;;;;;5067250;28;20031;-69
2022/06/10 02:27:21;;;;;;;38.10;6.20;;;14.80;99.90;;;;;;5084195;28;20029;-69
2022/06/10 02:30:00;;;;;;;28.48;5.43;;;14.70;99.90;;;;;;5084199;28;20020;-69
2022/06/10 02:32:26;;;;;;;43.47;5.95;;;14.70;99.90;;;;;;5067458;28;20215;-68
2022/06/10 02:34:54;;;;;;;34.80;6.05;;;14.70;99.90;;;;;;5085132;28;20024;-69
2022/06/10 02:37:25;;;;;;;33.95;5.97;;;14.70;99.90;;;;;;5085027;28;20024;-69
2022/06/10 02:40:08;;;;;;;36.80;6.13;;;14.70;99.90;;;;;;5084364;28;20021;-69
2022/06/10 02:42:53;;;;;;;38.53;5.22;;;14.60;99.90;;;;;;5067020;28;20024;-68
2022/06/10 02:45:32;;;;;;;35.97;5.82;;;14.60;99.90;;;;;;5084881;28;20032;-68
2022/06/10 02:48:30;;;;;;;38.53;5.03;;;14.60;99.90;;;;;;5104218;28;20079;-68
2022/06/10 02:50:56;;;;;;;29.83;5.70;;;14.60;99.90;;;;;;5105407;28;20065;-68
2022/06/10 02:53:22;;;;;;;41.03;6.20;;;14.60;99.90;;;;;;5106245;28;20024;-69
2022/06/10 02:55:47;;;;;;;39.72;5.85;;;14.50;99.90;;;;;;5104358;28;20061;-68
2022/06/10 03:01:30;;;;;;;36.88;5.30;;;14.50;99.90;;;;;;5091682;28;20070;-69
2022/06/10 03:04:30;;;;;;;35.50;6.07;;;14.40;99.90;;;;;;5111366;28;20303;-68
2022/06/10 03:07:24;;;;;;;31.58;5.70;;;14.40;99.90;;;;;;5111661;28;20090;-69
2022/06/10 03:10:11;;;;;;;43.00;5.93;;;14.40;99.90;;;;;;5111112;28;20087;-68
2022/06/10 03:12:46;;;;;;;38.83;5.72;;;14.30;99.90;;;;;;5108494;28;20315;-68
2022/06/10 03:15:35;;;;;;;36.10;5.88;;;14.30;99.90;;;;;;5107593;28;20016;-69
2022/06/10 03:18:15;;;;;;;32.33;4.93;;;14.20;99.90;;;;;;5105349;28;20028;-69
2022/06/10 03:21:08;;;;;;;34.03;5.55;;;14.30;99.90;;;;;;5106488;28;20033;-69
2022/06/10 03:24:04;;;;;;;26.63;5.55;;;14.30;99.90;;;;;;5106788;28;20087;-68
2022/06/10 03:26:51;;;;;;;27.63;5.13;;;14.20;99.90;;;;;;5106613;28;20024;-67
2022/06/10 03:29:32;;;;;;;23.40;4.90;;;14.20;99.90;;;;;;5106186;28;20122;-67
2022/06/10 03:32:06;;;;;;;32.42;6.10;;;14.10;99.90;;;;;;5106565;28;20016;-67
2022/06/10 03:34:37;;;;;;;32.88;5.82;;;14.00;99.90;;;;;;5107084;28;20020;-67
2022/06/10 03:37:06;;;;;;;37.88;5.60;;;13.90;99.90;;;;;;5106032;28;20234;-67
2022/06/10 03:39:32;;;;;;;30.08;5.10;;;13.90;99.90;;;;;;5089470;28;20084;-68
2022/06/10 03:42:09;;;;;;;32.50;5.85;;;13.80;99.90;;;;;;5106258;28;20051;-67
2022/06/10 03:44:36;;;;;;;33.00;5.95;;;13.70;99.90;;;;;;5106816;28;20026;-68
2022/06/10 03:47:04;;;;;;;30.60;5.47;;;13.70;99.90;;;;;;5106701;28;20020;-68
2022/06/10 03:49:37;;;;;;;34.90;5.20;;;13.70;99.90;;;;;;5105997;28;20022;-67
2022/06/10 03:52:03;;;;;;;34.25;5.82;;;13.70;99.90;;;;;;5106087;28;20031;-68
2022/06/10 03:54:29;;;;;;;36.17;5.82;;;13.60;99.90;;;;;;5106582;28;20040;-68
2022/06/10 03:56:55;;;;;;;33.80;6.07;;;13.60;99.90;;;;;;5105672;28;20068;-68
2022/06/10 03:59:20;;;;;;;33.88;6.43;;;13.50;99.90;;;;;;5105552;28;20020;-68
2022/06/10 04:01:46;;;;;;;36.17;5.93;;;13.50;99.90;;;;;;5105842;28;20091;-68
2022/06/10 04:04:12;;;;;;;33.25;6.30;;;13.50;99.90;;;;;;5105580;28;20083;-68
2022/06/10 04:06:38;;;;;;;57.42;7.53;;;13.60;99.90;;;;;;5106740;28;20020;-69
2022/06/10 04:09:04;;;;;;;34.17;6.28;;;13.70;99.90;;;;;;5105449;28;20100;-68
2022/06/10 04:11:30;;;;;;;49.80;7.10;;;13.70;99.90;;;;;;5105561;28;20342;-68
2022/06/10 04:13:55;;;;;;;40.78;7.18;;;13.70;99.90;;;;;;5087372;28;20031;-69
2022/06/10 04:16:21;;;;;;;50.17;7.00;;;13.60;99.90;;;;;;5106555;28;20024;-69
2022/06/10 04:18:46;;;;;;;36.13;6.72;;;13.70;99.90;;;;;;5105174;28;20107;-68
2022/06/10 04:21:12;;;;;;;35.55;5.40;;;13.70;99.90;;;;;;5106218;28;20036;-68
2022/06/10 04:23:38;;;;;;;33.80;6.50;;;13.70;99.90;;;;;;5106393;28;20050;-68
2022/06/10 04:26:04;;;;;;;27.40;5.60;;;13.60;99.90;;;;;;5106346;28;20034;-68
2022/06/10 04:28:30;;;;;;;31.50;6.28;;;13.60;99.90;;;;;;5106021;28;20024;-68
2022/06/10 04:30:56;;;;;;;29.25;6.07;;;13.60;99.90;;;;;;5102719;28;20218;-69
2022/06/10 04:33:22;;;;;;;30.35;5.55;;;13.60;99.90;;;;;;5101902;28;20024;-68
2022/06/10 04:35:50;;;;;;;35.47;6.15;;;13.60;99.90;;;;;;5100884;28;20103;-69
2022/06/10 04:38:19;;;;;;;34.20;5.70;;;13.70;99.90;;;;;;5103114;28;20307;-69
2022/06/10 04:40:46;;;;;;;41.63;6.10;;;13.70;99.90;;;;;;5103070;28;20223;-69
2022/06/10 04:43:12;;;;;;;33.97;5.57;;;13.70;99.90;;;;;;5102018;28;20204;-68
2022/06/10 04:45:44;;;;;;;30.77;5.57;;;13.80;99.90;;;;;;5104523;28;20024;-69
2022/06/10 04:48:11;;;;;;;31.17;5.75;;;13.90;99.90;;;;;;5104724;28;20296;-69
2022/06/10 04:50:38;;;;;;;35.85;5.85;;;14.00;99.90;;;;;;5105518;28;20032;-68
2022/06/10 04:53:04;;;;;;;28.67;5.60;;;14.10;99.90;;;;;;5103683;28;20101;-68
2022/06/10 04:55:29;;;;;;;30.38;5.38;;;14.20;99.90;;;;;;5103038;28;20044;-68
2022/06/10 04:57:56;;;;;;;28.88;4.97;;;14.40;99.90;;;;;;5103285;28;20058;-68
2022/06/10 05:00:27;;;;;;;27.10;5.32;;;14.60;99.90;;;;;;5102981;28;20039;-69
2022/06/10 05:02:53;;;;;;;33.63;5.15;;;14.70;99.90;;;;;;5104165;28;20027;-68
2022/06/10 05:05:19;;;;;;;29.60;5.38;;;14.90;99.90;;;;;;5105076;28;20066;-68
2022/06/10 05:07:45;;;;;;;30.65;5.35;;;14.90;99.90;;;;;;5105648;28;20021;-69
2022/06/10 05:10:15;;;;;;;33.42;5.43;;;15.10;99.90;;;;;;5105140;28;20330;-69
2022/06/10 05:12:41;;;;;;;29.38;5.20;;;15.10;99.90;;;;;;5086193;28;20020;-68
2022/06/10 05:15:07;;;;;;;30.73;4.85;;;15.30;99.90;;;;;;5103796;28;20044;-69
2022/06/10 05:17:33;;;;;;;30.65;5.18;;;15.50;99.90;;;;;;5103036;28;20031;-68
2022/06/10 05:19:59;;;;;;;28.70;5.13;;;15.60;99.90;;;;;;5103249;28;20031;-68
2022/06/10 05:22:24;;;;;;;34.70;5.45;;;15.40;99.90;;;;;;5104622;28;20023;-68
2022/06/10 05:24:50;;;;;;;30.15;5.68;;;15.40;99.90;;;;;;5104060;28;20179;-68
2022/06/10 05:27:16;;;;;;;32.05;5.53;;;15.30;99.90;;;;;;5104501;28;20032;-70
2022/06/10 05:29:42;;;;;;;31.33;5.38;;;15.30;99.90;;;;;;5100455;28;20036;-67
2022/06/10 05:32:07;;;;;;;33.13;4.78;;;15.30;99.90;;;;;;5102325;28;20204;-67
2022/06/10 05:34:48;;;;;;;30.50;5.25;;;15.30;99.90;;;;;;5102981;28;20051;-67
2022/06/10 05:37:17;;;;;;;37.33;5.53;;;15.30;99.90;;;;;;5104175;28;20024;-68
2022/06/10 05:39:42;;;;;;;37.88;5.22;;;15.30;99.90;;;;;;5103662;28;20031;-67
2022/06/10 05:42:09;;;;;;;33.40;5.53;;;15.40;99.90;;;;;;5103919;28;20020;-69
2022/06/10 05:44:38;;;;;;;29.02;5.70;;;15.40;99.90;;;;;;5104567;28;20031;-67
2022/06/10 05:47:07;;;;;;;34.75;5.28;;;15.50;99.90;;;;;;5101292;28;20435;-69
2022/06/10 05:49:35;;;;;;;34.03;5.55;;;15.50;99.90;;;;;;5084506;28;20032;-69
2022/06/10 05:52:01;;;;;;;40.05;5.60;;;15.50;99.90;;;;;;5080609;28;20044;-69
2022/06/10 05:54:27;;;;;;;37.15;5.55;;;15.60;99.90;;;;;;5081750;28;20348;-69
2022/06/10 05:56:53;;;;;;;30.02;4.82;;;15.70;99.90;;;;;;5081641;28;20024;-69
2022/06/10 05:59:19;;;;;;;35.92;5.72;;;15.70;99.90;;;;;;5081281;28;20035;-69
2022/06/10 06:01:45;;;;;;;35.03;5.57;;;15.70;99.90;;;;;;5080700;28;20266;-67
2022/06/10 06:04:11;;;;;;;34.97;6.03;;;15.80;99.90;;;;;;5082338;28;20181;-69
2022/06/10 06:06:37;;;;;;;35.58;6.53;;;15.80;99.90;;;;;;5083712;28;20028;-68
2022/06/10 06:09:03;;;;;;;33.00;5.25;;;15.80;99.90;;;;;;5082100;28;20021;-69
2022/06/10 06:11:29;;;;;;;33.13;6.07;;;15.80;99.90;;;;;;5083522;28;20036;-68
2022/06/10 06:13:57;;;;;;;33.92;5.30;;;15.80;99.90;;;;;;5082738;28;20027;-68
2022/06/10 06:16:23;;;;;;;31.13;5.00;;;15.70;99.90;;;;;;5083343;28;20085;-69
2022/06/10 06:18:50;;;;;;;42.42;5.70;;;15.80;99.90;;;;;;5081697;28;20024;-68
2022/06/10 06:21:15;;;;;;;43.13;6.03;;;15.90;99.90;;;;;;5081845;28;20093;-69
2022/06/10 06:23:42;;;;;;;35.92;5.07;;;15.90;99.90;;;;;;5083678;28;20028;-68
2022/06/10 06:26:13;;;;;;;32.50;5.60;;;16.00;99.90;;;;;;5098666;28;20047;-68
2022/06/10 06:28:39;;;;;;;36.88;5.75;;;16.00;99.90;;;;;;5098589;28;20047;-67
2022/06/10 06:31:05;;;;;;;30.00;5.35;;;16.00;99.90;;;;;;5081866;28;20032;-68
2022/06/10 06:33:30;;;;;;;33.85;5.60;;;16.10;99.90;;;;;;5081830;28;20307;-68
2022/06/10 06:35:56;;;;;;;29.13;5.28;;;16.10;99.90;;;;;;5081840;28;20083;-69
2022/06/10 06:38:23;;;;;;;36.42;5.03;;;16.10;99.90;;;;;;5082212;28;20078;-68
2022/06/10 06:40:49;;;;;;;29.70;5.03;;;16.20;99.90;;;;;;5083230;28;20029;-68
2022/06/10 06:43:14;;;;;;;27.38;4.57;;;16.20;99.90;;;;;;5098067;28;20039;-70
2022/06/10 06:45:42;;;;;;;32.35;5.07;;;16.30;99.90;;;;;;5098380;28;20028;-70
2022/06/10 06:48:09;;;;;;;23.88;4.43;;;16.20;99.90;;;;;;5102654;28;20024;-70
2022/06/10 06:50:39;;;;;;;32.67;5.63;;;16.20;99.90;;;;;;5102050;28;20024;-67
2022/06/10 06:53:05;;;;;;;30.80;5.13;;;16.20;99.90;;;;;;5101191;28;20091;-68
2022/06/10 06:55:31;;;;;;;28.92;5.03;;;16.30;99.90;;;;;;5101619;28;20243;-69
2022/06/10 06:57:57;;;;;;;31.92;4.57;;;16.40;99.90;;;;;;5085220;28;20020;-69
2022/06/10 07:00:26;;;;;;;25.50;4.65;;;16.40;99.90;;;;;;5082738;28;20040;-69
2022/06/10 07:02:51;;;;;;;28.08;5.22;;;16.40;99.90;;;;;;5091755;28;20039;-69
2022/06/10 07:05:18;;;;;;;26.80;4.72;;;16.50;99.90;;;;;;5099375;28;20593;-70
2022/06/10 07:07:44;;;;;;;30.70;5.20;;;16.60;99.90;;;;;;5080545;28;20024;-71
2022/06/10 07:10:13;;;;;;;29.45;4.45;;;16.70;99.90;;;;;;5081402;28;20035;-72
2022/06/10 07:12:39;;;;;;;24.58;4.88;;;16.80;99.90;;;;;;5081531;28;20299;-70
2022/06/10 07:15:06;;;;;;;31.75;6.00;;;16.80;99.90;;;;;;5086506;28;20028;-71
2022/06/10 07:17:32;;;;;;;32.20;4.80;;;16.80;99.90;;;;;;5065018;28;20029;-71
2022/06/10 07:19:59;;;;;;;27.33;4.53;;;16.90;99.90;;;;;;5081803;28;20036;-71
2022/06/10 07:22:26;;;;;;;25.90;4.40;;;16.90;99.80;;;;;;5080877;28;20347;-71
2022/06/10 07:24:53;;;;;;;20.80;4.13;;;16.90;99.70;;;;;;5091560;28;20326;-71
2022/06/10 07:27:19;;;;;;;24.75;4.38;;;16.90;99.50;;;;;;5097709;28;20031;-71
2022/06/10 07:29:45;;;;;;;29.77;4.00;;;16.90;99.60;;;;;;5080338;28;20044;-71
2022/06/10 07:32:10;;;;;;;23.70;4.30;;;17.00;99.40;;;;;;5100609;28;20065;-72
2022/06/10 07:34:36;;;;;;;27.23;4.55;;;17.10;99.40;;;;;;5102260;28;20024;-71
2022/06/10 07:37:02;;;;;;;23.27;4.95;;;17.00;99.40;;;;;;5101981;28;20023;-70
2022/06/10 07:39:28;;;;;;;33.40;5.18;;;17.00;99.70;;;;;;5102126;28;20233;-69
2022/06/10 07:42:00;;;;;;;32.90;4.80;;;17.10;99.90;;;;;;5100668;28;20027;-69
2022/06/10 07:44:27;;;;;;;;;;;17.30;99.00;;;;;;5102820;28;20031;-69
2022/06/10 07:46:54;;;;;;;24.55;4.05;;;17.30;99.20;;;;;;5102442;28;19939;-69
2022/06/10 07:49:20;;;;;;;25.83;4.63;;;17.30;98.70;;;;;;5088466;28;20024;-70
2022/06/10 07:51:46;;;;;;;24.00;4.25;;;17.30;98.80;;;;;;5111064;28;20075;-70
2022/06/10 07:54:13;;;;;;;28.65;4.28;;;17.50;98.20;;;;;;5116012;28;20300;-70
2022/06/10 07:56:39;;;;;;;28.73;4.28;;;17.60;97.80;;;;;;5100731;28;20047;-68
2022/06/10 07:59:06;;;;;;;25.05;3.97;;;17.60;98.10;;;;;;5087250;28;20103;-72
2022/06/10 08:01:32;;;;;;;30.13;5.22;;;17.60;97.70;;;;;;5099356;28;20053;-71
2022/06/10 08:03:59;;;;;;;26.73;5.63;;;17.70;98.00;;;;;;5087682;28;20028;-69
2022/06/10 08:06:26;;;;;;;24.00;4.05;;;17.80;97.70;;;;;;5101622;28;20331;-69
2022/06/10 08:08:52;;;;;;;28.92;5.20;;;17.80;97.80;;;;;;5085344;28;20074;-70
2022/06/10 08:11:19;;;;;;;19.63;4.22;;;17.80;97.30;;;;;;5085581;28;20016;-72
2022/06/10 08:13:45;;;;;;;32.45;4.70;;;17.90;97.50;;;;;;5096964;28;20024;-69
2022/06/10 08:16:10;;;;;;;35.05;4.22;;;18.00;97.10;;;;;;5104844;28;20031;-69
2022/06/10 08:18:37;;;;;;;28.08;4.78;;;18.00;96.90;;;;;;5093652;28;20032;-70
2022/06/10 08:23:51;;;;;;;28.42;4.68;;;18.00;96.80;;;;;;5077414;28;20035;-70
2022/06/10 08:26:17;;;;;;;23.02;4.45;;;18.10;96.80;;;;;;5086022;28;20039;-71
2022/06/10 08:28:45;;;;;;;23.67;3.65;;;18.20;95.80;;;;;;5069372;28;20020;-71
2022/06/10 08:31:11;;;;;;;17.88;4.00;;;18.10;95.90;;;;;;5084249;28;20074;-70
2022/06/10 08:33:38;;;;;;;22.77;4.03;;;18.20;96.00;;;;;;5085028;28;20067;-70
2022/06/10 08:36:05;;;;;;;21.67;3.95;;;18.10;96.10;;;;;;5100789;28;20077;-69
2022/06/10 08:38:31;;;;;;;27.75;4.70;;;18.00;95.80;;;;;;5087547;28;20020;-71
2022/06/10 08:41:19;;;;;;;26.85;4.82;;;17.90;96.00;;;;;;5077555;28;20032;-70
2022/06/10 08:44:11;;;;;;;24.75;3.78;;;17.90;95.90;;;;;;5088262;28;20223;-72
2022/06/10 08:47:17;;;;;;;30.27;4.32;;;17.90;95.50;;;;;;5103842;28;20020;-69
2022/06/10 08:50:10;;;;;;;28.73;4.90;;;18.00;96.00;;;;;;5064847;28;20062;-71
2022/06/10 08:52:59;;;;;;;24.85;3.83;;;18.20;95.80;;;;;;5093054;28;20075;-70
2022/06/10 08:56:06;;;;;;;20.70;3.28;;;18.30;95.90;;;;;;5102441;28;20044;-71
2022/06/10 08:58:37;;;;;;;24.88;3.72;;;18.30;94.40;;;;;;5101076;28;20091;-72
2022/06/10 09:01:12;;;;;;;12.98;2.92;;;18.30;94.70;;;;;;5067875;28;20265;-73
2022/06/10 09:03:43;;;;;;;20.65;3.42;;;18.30;94.40;;;;;;5092656;28;20028;-70
2022/06/10 09:06:15;;;;;;;19.67;3.67;;;18.50;94.70;;;;;;5100171;28;20043;-72
2022/06/10 09:08:44;;;;;;;21.50;3.67;;;18.70;94.40;;;;;;5095602;28;20028;-71
2022/06/10 09:11:27;;;;;;;19.92;3.88;;;18.80;94.20;;;;;;5083086;28;20058;-71
2022/06/10 09:14:00;;;;;;;15.98;3.65;;;18.90;93.60;;;;;;5083998;28;20021;-70
2022/06/10 09:16:38;;;;;;;17.42;4.00;;;19.00;93.90;;;;;;5088310;28;20039;-71
2022/06/10 09:19:15;;;;;;;18.60;3.20;;;19.10;93.00;;;;;;5091045;28;20077;-73
2022/06/10 09:22:21;;;;;;;21.45;3.33;;;19.20;93.00;;;;;;5074629;28;20059;-71
2022/06/10 09:24:58;;;;;;;21.65;4.00;;;19.20;92.90;;;;;;5082679;28;20295;-72
2022/06/10 09:27:31;;;;;;;21.00;3.60;;;19.20;93.20;;;;;;5091126;28;20020;-73
2022/06/10 09:29:58;;;;;;;17.63;3.22;;;19.30;93.30;;;;;;5082423;28;20069;-72
2022/06/10 09:32:50;;;;;;;18.50;3.03;;;19.40;93.00;;;;;;5094119;28;20028;-72
2022/06/10 09:35:30;;;;;;;13.15;2.83;;;19.60;91.60;;;;;;5103005;28;20020;-72
2022/06/10 09:38:19;;;;;;;25.33;3.28;;;19.50;91.60;;;;;;5088544;28;20047;-72
2022/06/10 09:41:05;;;;;;;21.20;3.75;;;19.50;92.00;;;;;;5068719;28;20021;-71
2022/06/10 09:44:10;;;;;;;20.17;3.50;;;19.50;92.20;;;;;;5093036;28;20437;-71
2022/06/10 09:47:07;;;;;;;16.48;3.53;;;19.60;92.40;;;;;;5088928;28;20043;-74
2022/06/10 09:50:07;;;;;;;12.68;2.47;;;19.80;91.90;;;;;;5103125;28;20024;-73
2022/06/10 09:52:42;;;;;;;18.13;3.40;;;20.10;90.40;;;;;;5078106;28;20051;-72
2022/06/10 09:55:37;;;;;;;18.30;3.33;;;20.20;90.40;;;;;;5097907;28;20407;-70
2022/06/10 09:58:38;;;;;;;15.43;2.80;;;20.20;90.20;;;;;;5087889;28;20039;-74
2022/06/10 10:01:31;;;;;;;13.55;3.35;;;20.10;90.60;;;;;;5082434;28;20024;-72
2022/06/10 10:04:17;;;;;;;17.52;3.10;;;20.00;90.30;;;;;;5088956;28;20022;-71
2022/06/10 10:07:07;;;;;;;15.60;3.30;;;20.00;90.60;;;;;;5099048;28;20027;-72
2022/06/10 10:10:03;;;;;;;14.35;3.15;;;20.00;90.50;;;;;;5083388;28;20028;-70
2022/06/10 10:12:56;;;;;;;11.02;2.60;;;20.00;90.10;;;;;;5082183;28;20047;-71
2022/06/10 10:15:54;;;;;;;14.57;3.03;;;20.10;90.80;;;;;;5082886;28;20025;-72
2022/06/10 10:18:47;;;;;;;12.55;3.00;;;20.20;90.10;;;;;;5072678;28;20043;-72
2022/06/10 10:21:21;;;;;;;17.67;3.47;;;20.00;90.60;;;;;;5100706;28;20249;-72
2022/06/10 10:23:50;;;;;;;17.83;3.05;;;20.10;90.70;;;;;;5099794;28;20065;-72
2022/06/10 10:26:37;;;;;;;14.77;2.92;;;20.10;90.00;;;;;;5096349;28;20020;-73
2022/06/10 10:29:24;;;;;;;18.17;3.20;;;20.20;89.60;;;;;;5098688;28;20040;-73
2022/06/10 10:32:13;;;;;;;17.52;2.92;;;20.30;89.20;;;;;;5082842;28;20043;-74
2022/06/10 10:34:43;;;;;;;15.18;3.22;;;20.50;89.30;;;;;;5102191;28;20028;-71
2022/06/10 10:37:27;;;;;;;9.93;2.40;;;20.80;86.30;;;;;;5097973;28;20033;-72
2022/06/10 10:40:02;;;;;;;10.63;2.35;;;20.90;85.80;;;;;;5065223;28;20073;-73
2022/06/10 10:42:34;;;;;;;13.82;2.60;;;20.90;84.70;;;;;;5087416;28;20374;-72
2022/06/10 10:45:14;;;;;;;14.80;3.13;;;21.00;86.00;;;;;;5099639;28;20054;-72
2022/06/10 10:47:49;;;;;;;18.40;3.13;;;21.20;84.60;;;;;;5101965;28;20063;-72
2022/06/10 10:50:35;;;;;;;10.93;2.47;;;21.10;86.00;;;;;;5088341;28;20069;-73
2022/06/10 10:53:19;;;;;;;13.93;2.55;;;21.00;86.80;;;;;;5079111;28;20025;-72
2022/06/10 10:55:49;;;;;;;14.57;2.80;;;20.80;87.60;;;;;;5097215;28;20048;-73
2022/06/10 10:58:21;;;;;;;17.73;3.23;;;20.80;88.70;;;;;;5101597;28;20054;-75
2022/06/10 11:01:01;;;;;;;13.93;2.95;;;20.70;87.90;;;;;;5080784;28;20069;-73
2022/06/10 11:03:51;;;;;;;13.52;2.35;;;20.60;88.40;;;;;;5088804;28;20039;-73
2022/06/10 11:06:32;;;;;;;12.20;2.80;;;20.60;88.60;;;;;;5084483;28;20020;-70
2022/06/10 11:09:01;;;;;;;10.77;2.33;;;20.60;88.30;;;;;;5081902;28;20036;-72
2022/06/10 11:11:31;;;;;;;14.65;2.63;;;20.60;85.20;;;;;;5080966;28;20061;-73
2022/06/10 11:14:01;;;;;;;13.63;2.67;;;20.70;86.20;;;;;;5064804;28;20035;-72
2022/06/10 11:16:38;;;;;;;13.50;2.80;;;20.80;86.10;;;;;;5083856;28;20239;-72
2022/06/10 11:19:25;;;;;;;14.80;3.03;;;20.90;85.50;;;;;;5083418;28;20028;-72
2022/06/10 11:22:20;;;;;;;11.27;2.40;;;20.90;84.50;;;;;;5097845;28;20317;-74
2022/06/10 11:24:50;;;;;;;16.65;2.97;;;21.00;84.20;;;;;;5090169;28;20141;-73
2022/06/10 11:27:24;;;;;;;12.90;2.80;;;21.10;83.70;;;;;;5083540;28;20078;-72
2022/06/10 11:30:21;;;;;;;13.02;2.42;;;21.20;83.40;;;;;;5088078;28;20012;-74
2022/06/10 11:33:05;;;;;;;8.50;1.67;;;21.20;83.20;;;;;;5083572;28;20103;-71
2022/06/10 11:35:38;;;;;;;16.13;2.72;;;21.20;80.40;;;;;;5085763;28;20063;-71
2022/06/10 11:38:21;;;;;;;11.13;2.70;;;21.30;80.70;;;;;;5083918;28;20028;-73
2022/06/10 11:40:53;;;;;;;11.68;2.15;;;21.60;81.40;;;;;;5084740;28;20337;-73
2022/06/10 11:43:40;;;;;;;9.50;2.30;;;21.80;80.10;;;;;;5083035;28;20316;-73
2022/06/10 11:46:18;;;;;;;13.77;2.45;;;21.80;79.90;;;;;;5084023;28;20024;-73
2022/06/10 11:48:54;;;;;;;7.15;2.45;;;22.00;79.40;;;;;;5098527;28;20123;-73
2022/06/10 11:51:45;;;;;;;12.45;2.08;;;22.10;77.20;;;;;;5086405;28;20047;-72
2022/06/10 11:54:29;;;;;;;12.38;2.28;;;22.30;77.10;;;;;;5070744;28;20024;-73
2022/06/10 12:00:19;;;;;;;13.40;2.72;;;22.70;76.20;;;;;;5084744;28;20032;-75
2022/06/10 12:03:25;;;;;;;8.13;2.20;;;23.00;74.80;;;;;;5071338;28;20020;-74
2022/06/10 12:06:03;;;;;;;11.10;2.30;;;22.90;73.20;;;;;;5084841;28;20223;-73
2022/06/10 12:09:09;;;;;;;11.52;2.10;;;22.80;74.50;;;;;;5067377;28;20025;-75
2022/06/10 12:11:58;;;;;;;8.55;2.47;;;22.50;75.40;;;;;;5070560;28;20021;-72
2022/06/10 12:14:55;;;;;;;13.38;2.90;;;22.30;75.40;;;;;;5098817;28;20020;-72
2022/06/10 12:17:30;;;;;;;9.20;1.92;;;22.40;76.00;;;;;;5104123;28;20091;-72
2022/06/10 12:20:04;;;;;;;10.18;2.33;;;22.50;75.90;;;;;;5085120;28;20074;-73
2022/06/10 12:22:30;;;;;;;11.63;2.42;;;22.50;75.70;;;;;;5083774;28;20151;-73
2022/06/10 12:24:57;;;;;;;10.88;2.30;;;22.50;76.00;;;;;;5083033;28;20027;-72
2022/06/10 12:27:46;;;;;;;10.25;2.33;;;22.60;75.70;;;;;;5083496;28;20025;-72
2022/06/10 12:30:18;;;;;;;11.63;2.40;;;22.70;76.10;;;;;;5069947;28;20315;-74
2022/06/10 12:33:03;;;;;;;14.23;2.80;;;22.70;77.00;;;;;;5068499;28;20028;-74
2022/06/10 12:35:34;;;;;;;13.40;2.33;;;22.70;76.60;;;;;;5088672;28;20062;-75
2022/06/10 12:38:10;;;;;;;13.40;2.55;;;22.60;77.30;;;;;;5103081;28;20326;-74
2022/06/10 12:40:44;;;;;;;15.65;2.85;;;22.60;77.50;;;;;;5103636;28;20047;-75
2022/06/10 12:43:18;;;;;;;15.68;3.17;;;22.50;78.20;;;;;;5104036;28;20290;-72
2022/06/10 12:45:52;;;;;;;15.57;3.08;;;22.60;79.10;;;;;;5049792;28;20038;-74
2022/06/10 12:48:25;;;;;;;14.52;2.80;;;22.40;79.50;;;;;;5027338;28;20029;-75
2022/06/10 12:51:06;;;;;;;15.38;2.80;;;22.40;80.00;;;;;;5049312;28;20063;-72
2022/06/10 12:53:57;;;;;;;15.10;2.83;;;22.20;80.30;;;;;;5044699;28;20300;-72
2022/06/10 12:56:25;;;;;;;;;;;22.40;81.00;;;;;;5043661;28;20072;-73
2022/06/10 12:59:11;;;;;;;13.00;3.47;;;22.80;79.30;;;;;;5044516;28;20257;-75
2022/06/10 13:01:44;;;;;;;14.05;3.10;;;22.70;79.60;;;;;;5026962;28;20093;-74
2022/06/10 13:04:33;;;;;;;15.65;2.58;;;22.70;79.30;;;;;;5043243;28;20332;-73
2022/06/10 13:07:02;;;;;;;14.07;2.58;;;22.70;80.10;;;;;;5042788;28;20084;-74
2022/06/10 13:09:33;;;;;;;14.20;3.50;;;22.70;81.10;;;;;;5044002;28;20025;-74
2022/06/10 13:12:35;;;;;;;16.50;3.70;;;22.60;81.50;;;;;;5044275;28;20018;-74
2022/06/10 13:15:15;;;;;;;17.30;2.90;;;22.30;83.50;;;;;;5031761;28;20029;-75
2022/06/10 13:18:04;;;;;;;14.82;3.10;;;22.30;83.40;;;;;;5042769;28;20328;-72
2022/06/10 13:20:38;;;;;;;20.33;3.83;;;22.10;83.10;;;;;;5045083;28;20059;-73
2022/06/10 13:23:20;;;;;;;16.45;3.20;;;22.00;84.30;;;;;;5043627;28;20089;-73
2022/06/10 13:25:49;;;;;;;19.58;3.22;;;22.00;83.90;;;;;;5041433;28;20048;-73